Time;durP1;ratioP1;P1;durP2;ratioP2;P2;SDS_P1;SDS_P2;PMS_P1;PMS_P2;Temp;Humidity;BMP_temperature;BMP_pressure;BME280_temperature;BME280_humidity;BME280_pressure;Samples;Min_cycle;Max_cycle;Signal;HPM_P1;HPM_P2
2023/07/23 00:02:23;;;;;;;;;6.60;5.60;;;;;17.54;54.36;99357.94;5012032;28;8810;-57
2023/07/23 00:04:50;;;;;;;;;5.80;5.80;;;;;17.54;54.51;99360.63;5012854;28;8818;-57
2023/07/23 00:07:18;;;;;;;;;6.00;6.00;;;;;17.54;54.24;99355.25;5012110;28;8845;-58
2023/07/23 00:09:45;;;;;;;;;6.00;6.00;;;;;17.55;54.36;99356.91;5012921;28;8850;-58
2023/07/23 00:12:13;;;;;;;;;4.00;4.00;;;;;17.56;54.40;99353.22;5012356;28;8834;-59
2023/07/23 00:14:41;;;;;;;;;4.80;4.00;;;;;17.54;54.38;99344.47;5012280;28;8850;-59
2023/07/23 00:17:09;;;;;;;;;6.00;6.00;;;;;17.54;54.54;99347.16;5020517;28;8834;-59
2023/07/23 00:19:36;;;;;;;;;6.00;5.60;;;;;17.56;54.72;99337.09;5027507;28;9546;-58
2023/07/23 00:22:04;;;;;;;;;6.00;5.60;;;;;17.57;54.99;99333.38;5016116;28;8830;-59
2023/07/23 00:24:33;;;;;;;;;7.75;6.00;;;;;17.59;54.80;99325.94;5023658;28;8808;-59
2023/07/23 00:27:01;;;;;;;;;6.20;6.20;;;;;17.60;54.55;99327.59;5022102;28;8875;-58
2023/07/23 00:29:29;;;;;;;;;6.00;4.00;;;;;17.58;54.66;99329.66;5030602;28;8837;-59
2023/07/23 00:31:56;;;;;;;;;4.00;4.00;;;;;17.58;54.56;99323.41;5034207;28;8864;-59
2023/07/23 00:34:24;;;;;;;;;6.20;6.20;;;;;17.57;54.73;99327.97;5034815;28;8821;-59
2023/07/23 00:36:52;;;;;;;;;7.40;6.40;;;;;17.54;54.68;99314.03;5034508;28;8824;-58
2023/07/23 00:39:19;;;;;;;;;9.00;7.40;;;;;17.53;54.84;99302.41;5033228;28;8816;-58
2023/07/23 00:41:49;;;;;;;;;4.40;4.40;;;;;17.54;54.77;99301.41;5033510;28;8855;-58
2023/07/23 00:44:17;;;;;;;;;5.60;5.60;;;;;17.54;55.66;99296.00;5035180;28;8832;-57
2023/07/23 00:46:44;;;;;;;;;6.00;6.00;;;;;17.55;55.19;99286.09;5035370;28;8820;-58
2023/07/23 00:49:12;;;;;;;;;4.00;4.00;;;;;17.55;55.63;99278.81;5034896;28;8889;-59
2023/07/23 00:51:39;;;;;;;;;3.20;3.20;;;;;17.52;55.45;99268.44;5035197;28;8828;-58
2023/07/23 00:54:07;;;;;;;;;1.00;1.00;;;;;17.49;55.75;99254.50;5025021;28;8857;-57
2023/07/23 00:56:35;;;;;;;;;6.00;4.00;;;;;17.44;55.90;99263.13;5021703;28;8828;-58
2023/07/23 00:59:02;;;;;;;;;7.00;6.00;;;;;17.41;55.84;99252.75;5018437;28;8829;-58
2023/07/23 01:01:30;;;;;;;;;6.00;6.00;;;;;17.38;56.43;99258.47;5015123;28;9532;-57
2023/07/23 01:03:58;;;;;;;;;4.00;3.80;;;;;17.37;56.23;99242.47;5018585;28;8814;-58
2023/07/23 01:06:26;;;;;;;;;6.80;6.80;;;;;17.33;56.50;99244.66;5030950;28;8817;-57
2023/07/23 01:08:55;;;;;;;;;8.20;6.00;;;;;17.32;55.68;99248.38;5016090;28;8918;-57
2023/07/23 01:11:22;;;;;;;;;7.80;7.80;;;;;17.29;56.67;99240.69;5015948;28;8837;-57
2023/07/23 01:13:51;;;;;;;;;4.40;4.40;;;;;17.26;56.50;99226.75;5028234;28;8841;-58
2023/07/23 01:16:18;;;;;;;;;7.80;6.00;;;;;17.26;56.54;99224.06;5034599;28;8966;-59
2023/07/23 01:18:46;;;;;;;;;4.00;4.00;;;;;17.25;56.91;99222.41;5034838;28;8832;-59
2023/07/23 01:21:14;;;;;;;;;6.00;6.00;;;;;17.24;56.55;99218.84;5034805;28;8827;-57
2023/07/23 01:23:42;;;;;;;;;4.40;4.40;;;;;17.23;56.87;99217.19;5034592;28;8832;-57
2023/07/23 01:26:09;;;;;;;;;4.00;4.00;;;;;17.23;56.86;99211.81;5034408;28;8835;-58
2023/07/23 01:28:37;;;;;;;;;6.00;6.00;;;;;17.23;56.86;99211.81;5034337;28;8843;-56
2023/07/23 01:31:06;;;;;;;;;6.75;6.75;;;;;17.24;56.86;99208.09;5034059;28;8820;-57
2023/07/23 01:33:34;;;;;;;;;7.80;7.00;;;;;17.26;56.54;99195.31;5034138;28;8824;-57
2023/07/23 01:36:02;;;;;;;;;8.20;8.00;;;;;17.26;56.23;99192.63;5034364;28;8836;-57
2023/07/23 01:38:30;;;;;;;;;8.00;8.00;;;;;17.27;56.94;99191.59;5034290;28;8848;-56
2023/07/23 01:40:58;;;;;;;;;5.60;5.20;;;;;17.27;56.75;99194.28;5034264;28;8843;-58
2023/07/23 01:43:25;;;;;;;;;6.20;6.00;;;;;17.29;56.93;99186.00;5035018;28;8824;-58
2023/07/23 01:45:53;;;;;;;;;6.00;4.40;;;;;17.30;56.75;99172.38;5034439;28;8860;-58
2023/07/23 01:48:20;;;;;;;;;9.00;7.00;;;;;17.31;56.37;99176.72;5033604;28;8820;-58
2023/07/23 01:50:48;;;;;;;;;5.50;5.50;;;;;17.33;56.62;99174.69;5033858;28;8832;-56
2023/07/23 01:53:15;;;;;;;;;6.00;4.50;;;;;17.35;56.41;99167.28;5029473;28;8864;-58
2023/07/23 01:55:43;;;;;;;;;4.00;4.00;;;;;17.36;56.22;99162.72;5013962;28;8814;-59
2023/07/23 01:58:11;;;;;;;;;10.40;8.40;;;;;17.39;56.26;99165.91;5014135;28;8819;-57
2023/07/23 02:00:39;;;;;;;;;7.00;5.60;;;;;17.44;56.66;99159.97;5015104;28;8835;-58
2023/07/23 02:03:07;;;;;;;;;5.20;4.40;;;;;17.47;56.21;99155.06;5015089;28;8834;-59
2023/07/23 02:05:35;;;;;;;;;6.25;6.00;;;;;17.50;56.43;99146.63;5014080;28;8841;-57
2023/07/23 02:08:03;;;;;;;;;6.75;6.50;;;;;17.54;56.35;99153.31;5014177;28;8841;-58
2023/07/23 02:10:30;;;;;;;;;6.00;6.00;;;;;17.56;56.17;99142.34;5014360;28;8849;-59
2023/07/23 02:12:58;;;;;;;;;7.40;7.00;;;;;17.58;56.50;99145.69;5013904;28;8874;-59
2023/07/23 02:15:27;;;;;;;;;6.00;5.20;;;;;17.59;56.56;99142.81;5014562;28;8976;-57
2023/07/23 02:17:55;;;;;;;;;4.40;4.40;;;;;17.60;56.60;99133.72;5012511;28;8834;-59
2023/07/23 02:20:22;;;;;;;;;4.50;4.50;;;;;17.63;56.44;99130.63;5013098;28;8842;-59
2023/07/23 02:22:50;;;;;;;;;6.40;6.00;;;;;17.67;56.56;99129.25;5013354;28;8844;-56
2023/07/23 02:25:17;;;;;;;;;5.60;5.60;;;;;17.70;56.23;99134.25;5014302;28;9546;-59
2023/07/23 02:27:45;;;;;;;;;4.00;4.00;;;;;17.74;56.74;99123.94;5013803;28;8826;-58
2023/07/23 02:30:13;;;;;;;;;5.75;5.50;;;;;17.78;55.97;99119.88;5013825;28;9768;-58
2023/07/23 02:32:40;;;;;;;;;5.00;4.50;;;;;17.82;55.98;99116.63;5019662;28;8828;-59
2023/07/23 02:35:08;;;;;;;;;6.00;6.00;;;;;17.87;56.24;99122.28;5031313;28;8824;-57
2023/07/23 02:37:36;;;;;;;;;6.80;6.00;;;;;17.92;56.24;99125.22;5032875;28;8824;-57
2023/07/23 02:40:04;;;;;;;;;8.60;8.20;;;;;17.96;55.51;99115.75;5031211;28;8826;-56
2023/07/23 02:42:32;;;;;;;;;6.00;6.00;;;;;18.00;55.76;99111.66;5033206;28;8827;-59
2023/07/23 02:44:59;;;;;;;;;7.00;6.00;;;;;18.02;55.89;99120.41;5025774;28;8823;-59
2023/07/23 02:47:27;;;;;;;;;6.60;6.20;;;;;18.03;55.81;99113.97;5013286;28;8830;-58
2023/07/23 02:49:55;;;;;;;;;7.00;6.40;;;;;18.04;55.71;99102.19;5013278;28;8842;-58
2023/07/23 02:52:23;;;;;;;;;6.20;6.20;;;;;18.07;55.49;99115.25;5014501;28;8814;-58
2023/07/23 02:54:51;;;;;;;;;7.40;7.00;;;;;18.09;55.80;99101.59;5025417;28;8812;-59
2023/07/23 02:57:19;;;;;;;;;4.00;4.00;;;;;18.10;55.97;99104.13;5032710;28;8839;-58
2023/07/23 02:59:46;;;;;;;;;6.40;6.20;;;;;18.12;56.06;99098.50;5033249;28;8916;-59
2023/07/23 03:02:14;;;;;;;;;8.60;6.80;;;;;18.15;55.61;99101.66;5026034;28;8814;-59
2023/07/23 03:04:43;;;;;;;;;4.00;4.00;;;;;18.18;55.60;99095.91;5014226;28;8846;-59
2023/07/23 03:07:10;;;;;;;;;6.40;6.40;;;;;18.21;55.45;99090.13;5014606;28;8841;-57
2023/07/23 03:09:41;;;;;;;;;5.60;4.00;;;;;18.24;55.56;99083.53;5020857;28;8820;-59
2023/07/23 03:12:09;;;;;;;;;6.20;6.20;;;;;18.26;55.36;99081.47;5028810;28;8826;-57
2023/07/23 03:14:37;;;;;;;;;7.00;6.20;;;;;18.27;54.96;99073.19;5013318;28;8923;-59
2023/07/23 03:17:05;;;;;;;;;4.20;4.20;;;;;18.29;55.57;99073.84;5014463;28;8835;-57
2023/07/23 03:19:33;;;;;;;;;7.00;6.00;;;;;18.30;55.24;99067.44;5030690;28;8816;-58
2023/07/23 03:22:00;;;;;;;;;7.00;6.00;;;;;18.34;55.55;99067.91;5033059;28;8843;-57
2023/07/23 03:24:28;;;;;;;;;7.00;7.00;;;;;18.36;54.82;99063.97;5033054;28;9518;-59
2023/07/23 03:26:56;;;;;;;;;5.60;5.60;;;;;18.40;55.36;99070.69;5032820;28;8820;-57
2023/07/23 03:29:24;;;;;;;;;6.40;6.00;;;;;18.41;55.08;99069.66;5032916;28;8848;-58
2023/07/23 03:31:51;;;;;;;;;6.20;5.60;;;;;18.42;55.34;99063.22;5032780;28;8851;-59
2023/07/23 03:34:19;;;;;;;;;6.20;6.20;;;;;18.43;55.33;99067.56;5032593;28;8840;-59
2023/07/23 03:36:46;;;;;;;;;9.00;7.00;;;;;18.47;55.31;99058.09;5032936;28;9480;-57
2023/07/23 03:39:17;;;;;;;;;5.20;5.20;;;;;18.51;54.84;99059.34;5032806;28;8839;-59
2023/07/23 03:41:48;;;;;;;;;6.00;6.00;;;;;18.53;55.17;99056.47;5032467;28;8840;-57
2023/07/23 03:44:18;;;;;;;;;8.60;6.80;;;;;18.53;54.68;99054.59;5032772;28;8852;-58
2023/07/23 03:46:45;;;;;;;;;9.40;8.00;;;;;18.54;55.15;99059.00;5032359;28;8820;-57
2023/07/23 03:49:13;;;;;;;;;6.40;6.40;;;;;18.57;54.69;99060.44;5032198;28;8836;-58
2023/07/23 03:51:40;;;;;;;;;9.40;6.40;;;;;18.57;54.67;99061.28;5032297;28;8820;-57
2023/07/23 03:54:08;;;;;;;;;2.60;2.60;;;;;18.60;54.89;99049.28;5033101;28;8816;-57
2023/07/23 03:56:36;;;;;;;;;6.80;6.00;;;;;18.62;54.66;99060.69;5036146;28;8847;-57
2023/07/23 03:59:04;;;;;;;;;7.00;6.00;;;;;18.64;54.56;99051.38;5035650;28;8816;-58
2023/07/23 04:01:31;;;;;;;;;4.40;3.80;;;;;18.68;54.63;99055.34;5035745;28;8840;-59
2023/07/23 04:04:00;;;;;;;;;6.80;6.80;;;;;18.69;54.46;99046.25;5021727;28;8873;-57
2023/07/23 04:06:28;;;;;;;;;4.40;3.60;;;;;18.72;54.62;99045.84;5029900;28;8811;-59
2023/07/23 04:08:56;;;;;;;;;6.00;6.00;;;;;18.75;54.47;99055.41;5032292;28;8823;-57
2023/07/23 04:11:23;;;;;;;;;4.00;3.60;;;;;18.76;54.58;99047.09;5016143;28;8830;-57
2023/07/23 04:13:51;;;;;;;;;5.60;5.60;;;;;18.79;53.83;99057.53;5015905;28;8833;-58
2023/07/23 04:16:18;;;;;;;;;6.40;5.20;;;;;18.84;54.38;99054.25;5015892;28;8868;-58
2023/07/23 04:18:47;;;;;;;;;7.00;7.00;;;;;18.86;54.33;99047.63;5022216;28;8881;-59
2023/07/23 04:21:14;;;;;;;;;7.00;7.00;;;;;18.91;54.17;99045.16;5035258;28;8843;-57
2023/07/23 04:23:42;;;;;;;;;6.80;6.40;;;;;18.95;53.98;99051.84;5035217;28;8831;-57
2023/07/23 04:26:10;;;;;;;;;8.80;8.00;;;;;18.99;53.62;99053.13;5035078;28;8792;-57
2023/07/23 04:28:37;;;;;;;;;7.80;6.80;;;;;19.04;54.11;99042.56;5035220;28;8820;-58
2023/07/23 04:31:05;;;;;;;;;7.20;6.60;;;;;19.10;53.75;99049.00;5035217;28;8839;-56
2023/07/23 04:33:33;;;;;;;;;1.00;1.00;;;;;19.16;53.81;99049.09;5035199;28;8820;-56
2023/07/23 04:36:00;;;;;;;;;6.00;6.00;;;;;19.21;53.35;99040.41;5027804;28;8850;-59
2023/07/23 04:38:28;;;;;;;;;6.00;5.80;;;;;19.25;53.37;99047.91;5016208;28;8826;-57
2023/07/23 04:40:56;;;;;;;;;8.20;7.00;;;;;19.29;53.47;99046.50;5032818;28;8828;-58
2023/07/23 04:43:24;;;;;;;;;8.60;6.80;;;;;19.33;52.78;99039.66;5015950;28;8844;-58
2023/07/23 04:45:51;;;;;;;;;4.00;4.00;;;;;19.38;53.33;99041.75;5015387;28;8866;-59
2023/07/23 04:48:19;;;;;;;;;6.40;6.00;;;;;19.41;53.03;99041.38;5015142;28;8822;-57
2023/07/23 04:50:47;;;;;;;;;5.00;5.00;;;;;19.44;53.19;99039.09;5015187;28;8810;-59
2023/07/23 04:53:18;;;;;;;;;5.40;5.00;;;;;19.47;52.95;99046.78;5014933;28;8806;-58
2023/07/23 04:55:46;;;;;;;;;4.00;4.00;;;;;19.50;53.04;99030.19;5018656;28;8822;-59
2023/07/23 04:58:13;;;;;;;;;5.00;4.00;;;;;19.52;53.10;99035.38;5015258;28;8841;-59
2023/07/23 05:00:41;;;;;;;;;8.40;7.00;;;;;19.53;53.05;99035.19;5014918;28;8830;-57
2023/07/23 05:03:09;;;;;;;;;5.40;4.00;;;;;19.55;53.20;99034.97;5015362;28;9532;-57
2023/07/23 05:05:36;;;;;;;;;5.80;5.40;;;;;19.57;53.01;99038.34;5027442;28;8820;-57
2023/07/23 05:08:04;;;;;;;;;7.00;7.00;;;;;19.59;52.72;99037.09;5016519;28;8841;-57
2023/07/23 05:10:32;;;;;;;;;7.40;5.40;;;;;19.62;53.00;99039.38;5016118;28;8822;-58
2023/07/23 05:12:59;;;;;;;;;6.00;5.20;;;;;19.66;52.90;99037.13;5015068;28;8841;-57
2023/07/23 05:15:27;;;;;;;;;4.40;4.40;;;;;19.68;52.45;99032.34;5032563;28;8849;-57
2023/07/23 05:17:55;;;;;;;;;4.40;4.40;;;;;19.70;52.61;99032.97;5023292;28;8820;-59
2023/07/23 05:20:23;;;;;;;;;7.00;7.00;;;;;19.71;52.83;99040.06;5034682;28;8940;-59
2023/07/23 05:22:50;;;;;;;;;5.20;4.60;;;;;19.73;52.70;99036.09;5034590;28;8823;-57
2023/07/23 05:25:18;;;;;;;;;6.80;6.80;;;;;19.74;52.16;99020.72;5034543;28;8877;-59
2023/07/23 05:27:45;;;;;;;;;4.00;3.80;;;;;19.77;52.12;99029.25;5034487;28;8838;-57
2023/07/23 05:30:14;;;;;;;;;5.40;5.20;;;;;19.82;52.22;99036.75;5034248;28;8832;-57
2023/07/23 05:32:43;;;;;;;;;2.20;1.40;;;;;19.83;52.40;99023.06;5034719;28;9693;-57
2023/07/23 05:35:11;;;;;;;;;5.80;5.40;;;;;19.87;51.87;99032.41;5034160;28;8812;-58
2023/07/23 05:37:38;;;;;;;;;4.00;4.00;;;;;19.89;52.31;99029.50;5034299;28;8854;-57
2023/07/23 05:40:06;;;;;;;;;6.20;6.20;;;;;19.90;52.34;99031.16;5034177;28;8831;-57
2023/07/23 05:42:34;;;;;;;;;4.60;4.60;;;;;19.91;52.24;99017.47;5034730;28;8870;-59
2023/07/23 05:45:03;;;;;;;;;5.80;5.20;;;;;19.92;52.44;99011.03;5033936;28;8839;-57
2023/07/23 05:47:30;;;;;;;;;5.00;4.00;;;;;19.94;51.96;99011.63;5034061;28;8820;-57
2023/07/23 05:49:58;;;;;;;;;4.00;4.00;;;;;19.98;52.08;99015.63;5033429;28;9505;-58
2023/07/23 05:52:26;;;;;;;;;6.80;4.00;;;;;20.01;52.26;99009.78;5015400;28;8843;-57
2023/07/23 05:54:54;;;;;;;;;4.80;4.60;;;;;20.03;51.68;99007.72;5032195;28;8894;-58
2023/07/23 05:57:22;;;;;;;;;5.20;5.20;;;;;20.06;51.65;99009.19;5033181;28;8832;-57
2023/07/23 05:59:49;;;;;;;;;7.20;5.00;;;;;20.10;52.06;99008.59;5033649;28;8824;-57
2023/07/23 06:02:17;;;;;;;;;4.40;4.40;;;;;20.15;51.87;99008.81;5033027;28;8812;-59
2023/07/23 06:04:44;;;;;;;;;4.00;4.00;;;;;20.23;51.83;99010.47;5031658;28;8959;-57
2023/07/23 06:07:12;;;;;;;;;5.60;4.80;;;;;20.27;51.36;99007.19;5033148;28;8800;-56
2023/07/23 06:09:40;;;;;;;;;7.60;7.40;;;;;20.33;51.45;99006.34;5024940;28;8815;-58
2023/07/23 06:12:07;;;;;;;;;4.60;4.20;;;;;20.37;51.62;99010.31;5014155;28;8814;-56
2023/07/23 06:14:35;;;;;;;;;4.20;4.00;;;;;20.40;51.29;99012.56;5013894;28;8842;-58
2023/07/23 06:17:03;;;;;;;;;5.80;5.00;;;;;20.40;50.80;99004.47;5012542;28;8846;-57
2023/07/23 06:19:30;;;;;;;;;5.80;5.80;;;;;20.43;51.23;99004.06;5016985;28;8858;-58
2023/07/23 06:21:58;;;;;;;;;5.80;5.00;;;;;20.41;51.44;99003.41;5033559;28;9559;-60
2023/07/23 06:24:26;;;;;;;;;7.40;6.60;;;;;20.42;50.69;99013.22;5015194;28;9544;-59
2023/07/23 06:26:53;;;;;;;;;5.00;5.00;;;;;20.42;51.32;99010.53;5013769;28;8884;-57
2023/07/23 06:29:21;;;;;;;;;4.00;4.00;;;;;20.44;51.51;99005.72;5013271;28;8834;-57
2023/07/23 06:31:48;;;;;;;;;6.60;6.60;;;;;20.51;50.78;99019.25;5013483;28;8821;-57
2023/07/23 06:34:16;;;;;;;;;7.00;5.00;;;;;20.58;50.91;99004.69;5013184;28;8822;-59
2023/07/23 06:36:45;;;;;;;;;4.00;4.00;;;;;20.67;50.92;99008.00;5013337;28;8830;-57
2023/07/23 06:39:13;;;;;;;;;4.00;4.00;;;;;20.71;50.39;99007.38;5017196;28;9821;-57
2023/07/23 06:41:43;;;;;;;;;4.20;4.20;;;;;20.78;50.73;99005.50;5032701;28;8808;-57
2023/07/23 06:44:18;;;;;;;;;7.00;5.00;;;;;20.87;50.65;98998.03;5033358;28;8999;-57
2023/07/23 06:46:45;;;;;;;;;7.00;5.40;;;;;20.96;49.99;99006.56;5033658;28;8848;-57
2023/07/23 06:49:14;;;;;;;;;4.00;4.00;;;;;21.08;49.96;99004.88;5032882;28;8943;-59
2023/07/23 06:51:41;;;;;;;;;5.00;5.00;;;;;21.18;50.27;99001.75;5032679;28;8828;-57
2023/07/23 06:54:09;;;;;;;;;3.60;3.60;;;;;21.26;50.12;99020.47;5027362;28;8837;-58
2023/07/23 06:56:37;;;;;;;;;2.80;2.80;;;;;21.32;49.46;99003.34;5014573;28;8816;-57
2023/07/23 06:59:05;;;;;;;;;7.00;5.80;;;;;21.41;49.21;99007.50;5013976;28;8830;-57
2023/07/23 07:01:33;;;;;;;;;5.80;5.00;;;;;21.46;49.27;98999.53;5023602;28;8834;-59
2023/07/23 07:04:00;;;;;;;;;4.00;3.60;;;;;21.50;49.24;98989.97;5033057;28;8843;-57
2023/07/23 07:06:28;;;;;;;;;6.20;6.20;;;;;21.55;49.25;98998.28;5023064;28;8841;-59
2023/07/23 07:08:56;;;;;;;;;4.60;4.60;;;;;21.57;49.49;98990.75;5014561;28;8841;-58
2023/07/23 07:11:23;;;;;;;;;4.80;4.00;;;;;21.60;49.25;98984.91;5021249;28;9491;-57
2023/07/23 07:13:51;;;;;;;;;5.00;4.60;;;;;21.68;49.40;98987.41;5031393;28;8818;-59
2023/07/23 07:16:20;;;;;;;;;5.00;5.00;;;;;21.78;48.93;98979.66;5032570;28;8854;-57
2023/07/23 07:18:47;;;;;;;;;4.00;4.00;;;;;21.83;49.18;98985.22;5032531;28;8912;-57
2023/07/23 07:21:14;;;;;;;;;4.60;4.60;;;;;21.88;49.05;98983.53;5031334;28;8838;-57
2023/07/23 07:23:43;;;;;;;;;2.00;2.00;;;;;21.91;48.42;98980.41;5021537;28;8812;-59
2023/07/23 07:26:11;;;;;;;;;8.40;6.60;;;;;21.95;48.46;98988.94;5032983;28;9551;-59
2023/07/23 07:28:38;;;;;;;;;3.60;3.60;;;;;21.95;48.20;98978.09;5034643;28;9454;-57
2023/07/23 07:31:06;;;;;;;;;5.00;5.00;;;;;21.95;48.68;98984.31;5035973;28;8928;-57
2023/07/23 07:33:34;;;;;;;;;5.00;4.00;;;;;21.97;48.18;98986.81;5035938;28;8832;-58
2023/07/23 07:36:02;;;;;;;;;5.20;5.20;;;;;21.95;48.45;98989.75;5035653;28;8847;-59
2023/07/23 07:38:30;;;;;;;;;4.80;4.20;;;;;21.96;48.17;98986.00;5036024;28;8839;-57
2023/07/23 07:40:58;;;;;;;;;3.20;3.20;;;;;21.99;47.91;98992.84;5035261;28;8950;-57
2023/07/23 07:43:26;;;;;;;;;5.20;5.20;;;;;21.96;47.86;99005.00;5035739;28;8848;-59
2023/07/23 07:45:54;;;;;;;;;1.60;1.60;;;;;21.97;47.68;98992.25;5035774;28;9498;-58
2023/07/23 07:48:22;;;;;;;;;2.80;2.80;;;;;22.02;47.68;98995.16;5035530;28;8842;-59
2023/07/23 07:50:50;;;;;;;;;4.00;4.00;;;;;22.10;47.13;98986.75;5035836;28;8832;-58
2023/07/23 07:53:18;;;;;;;;;3.20;2.00;;;;;22.19;47.00;98988.16;5035145;28;8850;-58
2023/07/23 07:55:45;;;;;;;;;4.00;4.00;;;;;22.27;46.45;98994.16;5035048;28;8844;-58
2023/07/23 07:58:14;;;;;;;;;3.80;2.00;;;;;22.42;46.80;98986.56;5035537;28;8843;-58
2023/07/23 08:00:42;;;;;;;;;4.00;4.00;;;;;22.57;46.08;98981.63;5035569;28;9513;-57
2023/07/23 08:03:10;;;;;;;;;4.60;4.00;;;;;22.66;46.04;98993.03;5025826;28;8940;-59
2023/07/23 08:05:38;;;;;;;;;3.20;3.20;;;;;22.72;46.29;99003.00;5014438;28;8850;-59
2023/07/23 08:08:06;;;;;;;;;2.80;2.40;;;;;22.69;46.02;98995.31;5015957;28;8814;-59
2023/07/23 08:10:34;;;;;;;;;5.20;4.60;;;;;22.62;46.17;98999.97;5014199;28;9553;-58
2023/07/23 08:13:02;;;;;;;;;1.20;1.20;;;;;22.57;46.68;99013.38;5023029;28;8904;-59
2023/07/23 08:15:30;;;;;;;;;4.00;2.80;;;;;22.49;46.48;99009.06;5023555;28;8953;-59
2023/07/23 08:17:58;;;;;;;;;2.80;2.40;;;;;22.40;46.55;99010.31;5021285;28;8816;-59
2023/07/23 08:20:27;;;;;;;;;3.20;0.80;;;;;22.29;46.68;99016.47;5035213;28;8955;-58
2023/07/23 08:22:54;;;;;;;;;3.20;3.20;;;;;22.13;47.54;99003.44;5034088;28;8828;-57
2023/07/23 08:25:22;;;;;;;;;4.00;4.00;;;;;22.00;47.43;99018.94;5034810;28;8872;-58
2023/07/23 08:27:50;;;;;;;;;1.80;1.80;;;;;21.90;48.03;99019.41;5028713;28;9262;-57
2023/07/23 08:30:18;;;;;;;;;4.00;4.00;;;;;21.79;48.10;99021.97;5015069;28;8822;-59
2023/07/23 08:32:46;;;;;;;;;4.00;1.60;;;;;21.66;48.29;99033.72;5020342;28;8940;-60
2023/07/23 08:35:13;;;;;;;;;4.40;4.00;;;;;21.57;48.37;99028.72;5015099;28;8842;-59
2023/07/23 08:37:41;;;;;;;;;5.00;5.00;;;;;21.52;48.63;99031.22;5015897;28;8826;-59
2023/07/23 08:40:09;;;;;;;;;2.00;2.00;;;;;21.41;48.66;99023.75;5014109;28;8853;-58
2023/07/23 08:42:37;;;;;;;;;2.00;2.00;;;;;21.27;49.35;99025.66;5015481;28;8822;-58
2023/07/23 08:45:04;;;;;;;;;2.40;2.40;;;;;21.19;49.22;99027.78;5015090;28;8839;-59
2023/07/23 08:47:32;;;;;;;;;2.40;2.40;;;;;21.10;49.40;99042.59;5014993;28;8833;-60
2023/07/23 08:50:00;;;;;;;;;5.00;5.00;;;;;21.04;49.72;99043.44;5014757;28;8831;-60
2023/07/23 08:52:30;;;;;;;;;0.00;0.00;;;;;20.96;49.98;99054.47;5015081;28;8852;-58
2023/07/23 08:54:57;;;;;;;;;3.20;2.00;;;;;20.86;50.02;99040.47;5028423;28;8962;-59
2023/07/23 08:57:25;;;;;;;;;1.60;1.60;;;;;20.82;50.24;99077.13;5032141;28;8836;-59
2023/07/23 08:59:53;;;;;;;;;1.60;1.60;;;;;20.73;50.59;99076.50;5015041;28;8850;-58
2023/07/23 09:02:21;;;;;;;;;1.20;1.20;;;;;20.72;50.98;99065.06;5016222;28;8810;-60
2023/07/23 09:04:51;;;;;;;;;4.00;4.00;;;;;20.80;50.37;99063.00;5016406;28;9531;-59
2023/07/23 09:07:19;;;;;;;;;1.00;1.00;;;;;20.94;50.56;99064.66;5034657;28;8832;-59
2023/07/23 09:09:46;;;;;;;;;2.00;2.00;;;;;21.01;50.38;99060.91;5032794;28;8963;-59
2023/07/23 09:12:14;;;;;;;;;2.00;2.00;;;;;21.07;50.04;99070.91;5034273;28;8955;-59
2023/07/23 09:14:42;;;;;;;;;2.00;2.00;;;;;21.01;50.36;99074.47;5034143;28;8837;-60
2023/07/23 09:17:10;;;;;;;;;1.00;1.00;;;;;20.94;50.38;99075.47;5024617;28;9515;-59
2023/07/23 09:19:38;;;;;;;;;2.80;1.40;;;;;20.77;51.02;99070.69;5031045;28;8846;-57
2023/07/23 09:22:05;;;;;;;;;4.00;2.00;;;;;20.55;51.75;99077.34;5034047;28;8851;-57
2023/07/23 09:24:34;;;;;;;;;2.00;2.00;;;;;20.47;51.45;99085.66;5034371;28;8966;-60
2023/07/23 09:27:02;;;;;;;;;2.20;1.40;;;;;20.47;51.57;99104.59;5034250;28;8827;-59
2023/07/23 09:29:30;;;;;;;;;1.20;1.20;;;;;20.38;51.76;99095.81;5034818;28;9524;-59
2023/07/23 09:31:57;;;;;;;;;2.20;2.20;;;;;20.36;51.88;99094.34;5032632;28;8920;-59
2023/07/23 09:34:26;;;;;;;;;2.20;2.20;;;;;20.36;52.00;99092.50;5034207;28;8811;-57
2023/07/23 09:36:54;;;;;;;;;1.00;1.00;;;;;20.51;51.63;99095.84;5034319;28;8844;-58
2023/07/23 09:39:22;;;;;;;;;2.40;2.40;;;;;20.65;52.03;99105.66;5033950;28;8844;-59
2023/07/23 09:41:50;;;;;;;;;3.20;2.00;;;;;20.73;51.38;99090.03;5034280;28;8852;-58
2023/07/23 09:44:18;;;;;;;;;4.20;2.40;;;;;20.75;51.90;99097.94;5033934;28;8829;-59
2023/07/23 09:46:47;;;;;;;;;2.40;1.80;;;;;20.72;52.09;99109.19;5034130;28;8836;-59
2023/07/23 09:49:15;;;;;;;;;1.40;1.40;;;;;20.64;51.96;99106.66;5018088;28;8806;-59
2023/07/23 09:51:44;;;;;;;;;3.80;2.20;;;;;20.43;52.97;99104.16;5018098;28;8838;-57
2023/07/23 09:54:12;;;;;;;;;3.20;3.20;;;;;20.39;52.70;99116.41;5031195;28;8846;-59
2023/07/23 09:56:42;;;;;;;;;3.60;3.60;;;;;20.49;53.05;99126.84;5015240;28;8814;-59
2023/07/23 09:59:10;;;;;;;;;3.20;2.20;;;;;20.65;52.44;99119.19;5013622;28;8965;-60
2023/07/23 10:01:40;;;;;;;;;2.20;2.20;;;;;20.74;52.41;99105.22;5014042;28;8827;-59
2023/07/23 10:04:08;;;;;;;;;2.00;2.00;;;;;20.64;52.98;99109.38;5015385;28;8814;-59
2023/07/23 10:06:36;;;;;;;;;4.00;4.00;;;;;20.40;53.36;99103.72;5013624;28;8844;-59
2023/07/23 10:09:04;;;;;;;;;2.80;2.80;;;;;20.20;54.26;99095.56;5015187;28;8849;-60
2023/07/23 10:11:33;;;;;;;;;2.60;2.60;;;;;19.94;55.18;99100.84;5013468;28;8822;-58
2023/07/23 10:14:02;;;;;;;;;1.00;1.00;;;;;19.96;55.51;99106.88;5013788;28;8831;-59
2023/07/23 10:16:30;;;;;;;;;1.80;1.00;;;;;20.01;55.03;99107.09;5013675;28;8814;-60
2023/07/23 10:18:58;;;;;;;;;3.40;2.60;;;;;20.05;55.26;99113.81;5013942;28;8831;-60
2023/07/23 10:21:26;;;;;;;;;2.00;2.00;;;;;20.10;55.32;99111.31;5013706;28;8846;-58
2023/07/23 10:23:55;;;;;;;;;2.20;2.20;;;;;20.07;55.71;99113.59;5028676;28;8816;-58
2023/07/23 10:26:23;;;;;;;;;1.60;1.00;;;;;20.13;55.27;99108.22;5033248;28;8828;-59
2023/07/23 10:28:51;;;;;;;;;4.00;1.80;;;;;20.28;55.07;99110.75;5033600;28;9637;-60
2023/07/23 10:31:18;;;;;;;;;3.60;2.20;;;;;20.37;54.71;99109.53;5032423;28;8950;-58
2023/07/23 10:33:47;;;;;;;;;1.00;1.00;;;;;20.39;54.82;99121.81;5033019;28;8940;-60
2023/07/23 10:36:15;;;;;;;;;1.40;1.40;;;;;20.43;54.94;99123.09;5029282;28;8826;-58
2023/07/23 10:38:43;;;;;;;;;4.20;3.80;;;;;20.49;55.57;99110.63;5013487;28;8949;-60
2023/07/23 10:41:12;;;;;;;;;4.00;4.00;;;;;20.74;55.27;99112.53;5014186;28;8834;-60
2023/07/23 10:43:40;;;;;;;;;2.00;2.00;;;;;21.10;54.53;99113.00;5013677;28;9696;-61
2023/07/23 10:46:08;;;;;;;;;2.40;2.00;;;;;21.38;54.19;99083.78;5013165;28;8830;-57
2023/07/23 10:48:36;;;;;;;;;4.00;4.00;;;;;21.61;53.62;99094.97;5014440;28;9491;-60
2023/07/23 10:51:04;;;;;;;;;4.00;4.00;;;;;21.97;53.16;99082.59;5013410;28;8841;-58
2023/07/23 10:53:32;;;;;;;;;3.60;2.00;;;;;22.22;52.89;99083.50;5022900;28;8900;-59
2023/07/23 10:55:59;;;;;;;;;2.00;2.00;;;;;22.41;52.14;99076.28;5030758;28;9602;-59
2023/07/23 10:58:27;;;;;;;;;2.00;2.00;;;;;22.49;52.45;99081.50;5022189;28;8811;-58
2023/07/23 11:00:55;;;;;;;;;2.80;2.80;;;;;22.53;52.00;99090.88;5013024;28;8826;-60
2023/07/23 11:03:23;;;;;;;;;4.60;4.60;;;;;22.49;52.53;99089.63;5013285;28;8953;-60
2023/07/23 11:05:51;;;;;;;;;2.80;2.80;;;;;22.49;52.37;99100.50;5029967;28;8824;-59
2023/07/23 11:08:19;;;;;;;;;2.00;2.00;;;;;22.47;52.57;99087.13;5030642;28;8816;-58
2023/07/23 11:10:48;;;;;;;;;2.00;1.00;;;;;22.53;53.12;99096.31;5032149;28;8835;-59
2023/07/23 11:13:16;;;;;;;;;2.80;2.40;;;;;22.57;52.54;99098.34;5031253;28;9573;-60
2023/07/23 11:15:44;;;;;;;;;2.00;1.00;;;;;22.46;53.20;99098.22;5033069;28;8852;-59
2023/07/23 11:18:12;;;;;;;;;4.00;4.00;;;;;22.28;53.74;99098.06;5025959;28;8910;-58
2023/07/23 11:20:40;;;;;;;;;3.20;3.20;;;;;22.22;53.37;99109.78;5026293;28;8836;-60
2023/07/23 11:23:08;;;;;;;;;4.60;4.60;;;;;22.18;53.72;99086.88;5032414;28;8854;-58
2023/07/23 11:25:36;;;;;;;;;4.00;4.00;;;;;22.21;54.15;99092.69;5032651;28;8962;-60
2023/07/23 11:28:04;;;;;;;;;4.00;4.00;;;;;22.36;53.57;99092.38;5031931;28;8852;-59
2023/07/23 11:30:32;;;;;;;;;2.00;2.00;;;;;22.60;53.30;99097.06;5030859;28;8914;-59
2023/07/23 11:33:00;;;;;;;;;2.00;2.00;;;;;22.96;52.53;99099.94;5031725;28;8835;-57
2023/07/23 11:35:28;;;;;;;;;1.80;1.40;;;;;23.08;52.75;99109.84;5030952;28;8836;-60
2023/07/23 11:37:55;;;;;;;;;2.00;1.40;;;;;23.03;52.33;99092.56;5031536;28;8839;-58
2023/07/23 11:40:23;;;;;;;;;3.20;3.20;;;;;23.06;52.32;99087.53;5031085;28;8860;-58
2023/07/23 11:42:51;;;;;;;;;4.20;3.20;;;;;23.02;52.64;99097.19;5032440;28;8828;-58
2023/07/23 11:45:19;;;;;;;;;4.00;4.00;;;;;22.99;53.05;99086.75;5031185;28;8844;-58